Time;durP1;ratioP1;P1;durP2;ratioP2;P2;SDS_P1;SDS_P2;PMS_P1;PMS_P2;Temp;Humidity;BMP_temperature;BMP_pressure;BME280_temperature;BME280_humidity;BME280_pressure;Samples;Min_cycle;Max_cycle;Signal;HPM_P1;HPM_P2
2021/06/16 00:00:38;;;;;;;4.03;3.73;;;20.10;63.00;;;;;;5142037;27;20179;-42
2021/06/16 00:03:04;;;;;;;4.67;3.70;;;20.10;63.70;;;;;;5141405;27;20226;-42
2021/06/16 00:05:30;;;;;;;4.10;3.77;;;20.10;64.40;;;;;;5142374;27;20579;-43
2021/06/16 00:07:57;;;;;;;3.83;3.53;;;20.00;65.10;;;;;;5142159;27;20413;-41
2021/06/16 00:10:27;;;;;;;5.20;3.80;;;20.00;66.40;;;;;;5142317;27;20408;-42
2021/06/16 00:12:52;;;;;;;6.30;3.23;;;19.90;66.60;;;;;;5142136;27;20445;-43
2021/06/16 00:15:24;;;;;;;4.10;3.80;;;19.90;67.10;;;;;;5141829;27;20413;-43
2021/06/16 00:17:50;;;;;;;10.73;4.87;;;19.90;67.70;;;;;;5142256;27;20481;-46
2021/06/16 00:20:15;;;;;;;3.70;3.30;;;19.90;68.40;;;;;;5142062;27;20826;-43
2021/06/16 00:22:44;;;;;;;5.10;3.87;;;19.90;68.80;;;;;;5141487;27;20503;-45
2021/06/16 00:25:13;;;;;;;3.83;3.40;;;19.90;69.20;;;;;;5142872;27;20546;-40
2021/06/16 00:27:39;;;;;;;4.20;3.90;;;19.90;69.50;;;;;;5142062;27;20481;-44
2021/06/16 00:30:08;;;;;;;3.47;3.17;;;19.80;69.60;;;;;;5141556;27;20401;-42
2021/06/16 00:32:34;;;;;;;3.30;3.00;;;19.80;69.90;;;;;;5142108;27;20213;-45
2021/06/16 00:35:00;;;;;;;4.40;3.40;;;19.70;70.30;;;;;;5142066;27;20849;-45
2021/06/16 00:37:25;;;;;;;5.33;4.07;;;19.70;71.20;;;;;;5122734;27;20752;-43
2021/06/16 00:39:51;;;;;;;4.07;3.67;;;19.70;71.90;;;;;;5141296;27;20613;-42
2021/06/16 00:42:17;;;;;;;3.70;3.40;;;19.70;72.80;;;;;;5140840;27;20589;-42
2021/06/16 00:44:43;;;;;;;3.50;3.20;;;19.70;73.30;;;;;;5141533;27;20266;-41
2021/06/16 00:47:08;;;;;;;3.97;3.57;;;19.70;73.80;;;;;;5141470;27;20177;-42
2021/06/16 00:49:34;;;;;;;5.60;3.70;;;19.60;74.60;;;;;;5141288;27;20176;-44
2021/06/16 00:52:00;;;;;;;4.70;3.40;;;19.60;74.50;;;;;;5141626;27;20497;-41
2021/06/16 00:54:26;;;;;;;3.47;3.17;;;19.60;75.60;;;;;;5141259;27;20568;-42
2021/06/16 00:56:51;;;;;;;4.60;3.90;;;19.60;75.60;;;;;;5140663;27;20178;-44
2021/06/16 00:59:17;;;;;;;3.80;3.47;;;19.50;76.10;;;;;;5140489;27;20175;-46
2021/06/16 01:01:47;;;;;;;4.50;4.10;;;19.50;77.20;;;;;;5141209;27;20320;-42
2021/06/16 01:04:21;;;;;;;3.63;3.33;;;19.40;77.40;;;;;;5121901;27;20615;-44
2021/06/16 01:07:09;;;;;;;4.03;3.73;;;19.40;77.90;;;;;;5140084;27;20408;-42
2021/06/16 01:09:44;;;;;;;5.37;4.20;;;19.50;78.50;;;;;;5121351;27;20409;-43
2021/06/16 01:12:12;;;;;;;4.70;4.20;;;19.40;78.80;;;;;;5121360;27;20422;-42
2021/06/16 01:14:59;;;;;;;4.60;4.20;;;19.50;79.50;;;;;;5138675;27;20416;-42
2021/06/16 01:17:48;;;;;;;4.80;4.40;;;19.50;79.80;;;;;;5139168;27;20459;-45
2021/06/16 01:20:22;;;;;;;4.77;4.37;;;19.40;80.70;;;;;;5107044;27;20409;-45
2021/06/16 01:23:06;;;;;;;4.63;4.23;;;19.40;81.90;;;;;;5120936;27;20849;-43
2021/06/16 01:26:02;;;;;;;5.93;4.70;;;19.40;82.10;;;;;;5139082;27;20424;-43
2021/06/16 01:28:40;;;;;;;5.20;4.67;;;19.40;82.60;;;;;;5140240;27;20507;-43
2021/06/16 01:31:08;;;;;;;4.73;4.33;;;19.40;83.10;;;;;;5121865;27;20490;-43
2021/06/16 01:33:35;;;;;;;4.30;3.90;;;19.40;83.30;;;;;;5121913;27;20702;-44
2021/06/16 01:36:01;;;;;;;5.20;4.30;;;19.40;83.60;;;;;;5121316;27;20420;-43
2021/06/16 01:38:28;;;;;;;4.80;4.40;;;19.40;84.00;;;;;;5139782;27;20452;-44
2021/06/16 01:40:56;;;;;;;5.10;4.70;;;19.40;84.60;;;;;;5121333;27;20432;-45
2021/06/16 01:43:23;;;;;;;4.70;4.30;;;19.40;84.50;;;;;;5121065;27;20854;-48
2021/06/16 01:45:49;;;;;;;4.70;4.20;;;19.40;84.90;;;;;;5120882;27;20479;-43
2021/06/16 01:48:17;;;;;;;4.60;4.20;;;19.40;85.40;;;;;;5121235;27;20415;-42
2021/06/16 01:50:44;;;;;;;6.40;5.10;;;19.40;85.80;;;;;;5120676;27;20532;-43
2021/06/16 01:53:11;;;;;;;4.87;4.37;;;19.30;85.80;;;;;;5139192;27;20415;-44
2021/06/16 01:55:38;;;;;;;5.47;4.97;;;19.30;86.10;;;;;;5121153;27;20461;-44
2021/06/16 01:58:04;;;;;;;5.07;4.57;;;19.30;86.80;;;;;;5121270;27;20535;-44
2021/06/16 02:00:31;;;;;;;4.83;4.33;;;19.20;87.10;;;;;;5120204;27;20431;-45
2021/06/16 02:02:57;;;;;;;4.60;4.20;;;19.20;87.30;;;;;;5138870;27;20749;-43
2021/06/16 02:05:25;;;;;;;5.17;4.50;;;19.10;87.70;;;;;;5138911;27;20436;-42
2021/06/16 02:08:07;;;;;;;4.90;4.40;;;19.10;88.20;;;;;;5139317;27;20436;-42
2021/06/16 02:10:36;;;;;;;4.93;4.47;;;19.00;88.60;;;;;;5120408;27;20412;-42
2021/06/16 02:13:04;;;;;;;4.37;4.07;;;19.00;88.10;;;;;;5121260;27;20412;-44
2021/06/16 02:15:34;;;;;;;4.87;4.47;;;19.00;88.10;;;;;;5138788;27;20694;-43
2021/06/16 02:18:01;;;;;;;4.47;4.17;;;19.10;88.30;;;;;;5120284;27;20467;-43
2021/06/16 02:20:27;;;;;;;5.30;4.80;;;19.10;88.40;;;;;;5103262;27;20890;-43
2021/06/16 02:22:53;;;;;;;5.17;4.67;;;19.10;88.50;;;;;;5120195;27;20833;-42
2021/06/16 02:25:20;;;;;;;4.90;4.50;;;19.10;88.70;;;;;;5138987;27;20444;-42
2021/06/16 02:27:46;;;;;;;8.27;5.07;;;19.10;88.50;;;;;;5119872;27;20548;-43
2021/06/16 02:30:12;;;;;;;5.03;4.53;;;19.00;88.80;;;;;;5138158;27;20786;-44
2021/06/16 02:32:38;;;;;;;4.40;4.10;;;19.00;89.10;;;;;;5139040;27;20416;-43
2021/06/16 02:35:06;;;;;;;5.10;4.70;;;19.00;89.40;;;;;;5138426;27;20435;-42
2021/06/16 02:37:35;;;;;;;4.87;4.37;;;19.00;89.50;;;;;;5120108;27;20420;-43
2021/06/16 02:40:08;;;;;;;4.90;4.40;;;19.00;89.40;;;;;;5120514;27;20825;-43
2021/06/16 02:42:35;;;;;;;4.70;4.40;;;19.00;89.70;;;;;;5119796;27;20532;-43
2021/06/16 02:45:02;;;;;;;5.00;4.50;;;19.00;90.30;;;;;;5119269;27;20978;-44
2021/06/16 02:47:28;;;;;;;5.50;4.90;;;19.00;90.20;;;;;;5137325;27;20441;-45
2021/06/16 02:49:56;;;;;;;5.40;4.83;;;19.00;90.30;;;;;;5138537;27;20493;-44
2021/06/16 02:52:22;;;;;;;5.33;4.80;;;19.00;90.00;;;;;;5119846;27;20420;-43
2021/06/16 02:54:54;;;;;;;5.33;4.80;;;18.90;89.90;;;;;;5119001;27;20427;-43
2021/06/16 02:57:21;;;;;;;6.63;5.20;;;18.90;89.90;;;;;;5102312;27;20433;-43
2021/06/16 02:59:48;;;;;;;5.70;5.17;;;18.90;90.10;;;;;;5119831;27;20504;-45
2021/06/16 03:02:21;;;;;;;5.90;5.20;;;18.90;90.20;;;;;;5120171;27;20511;-38
2021/06/16 03:04:47;;;;;;;5.20;4.70;;;18.90;90.30;;;;;;5119305;27;20415;-36
2021/06/16 03:07:14;;;;;;;5.13;4.73;;;18.80;90.50;;;;;;5119817;27;20424;-36
2021/06/16 03:09:41;;;;;;;5.37;4.87;;;18.80;90.50;;;;;;5119486;27;20706;-36
2021/06/16 03:12:07;;;;;;;6.10;5.50;;;18.60;90.60;;;;;;5137811;27;20412;-34
2021/06/16 03:14:34;;;;;;;5.47;4.60;;;18.60;90.90;;;;;;5138056;27;20667;-36
2021/06/16 03:17:00;;;;;;;6.00;5.40;;;18.40;91.10;;;;;;5119112;28;20882;-35
2021/06/16 03:19:26;;;;;;;5.67;5.17;;;18.30;91.60;;;;;;5119492;28;20744;-36
2021/06/16 03:21:53;;;;;;;6.77;5.40;;;18.20;91.90;;;;;;5101618;28;20500;-36
2021/06/16 03:24:20;;;;;;;5.90;5.40;;;18.10;92.00;;;;;;5118969;28;20568;-37
2021/06/16 03:26:47;;;;;;;5.70;5.20;;;18.10;92.30;;;;;;5136997;28;20416;-35
2021/06/16 03:29:14;;;;;;;5.20;4.70;;;17.90;92.60;;;;;;5119498;28;20865;-36
2021/06/16 03:31:41;;;;;;;5.93;5.50;;;17.90;92.80;;;;;;5137419;28;20858;-36
2021/06/16 03:34:08;;;;;;;5.67;5.17;;;17.90;92.90;;;;;;5118556;28;20809;-35
2021/06/16 03:36:35;;;;;;;5.80;5.27;;;17.90;93.20;;;;;;5117983;28;20432;-36
2021/06/16 03:39:02;;;;;;;5.10;4.70;;;17.90;93.60;;;;;;5118307;28;20417;-36
2021/06/16 03:41:28;;;;;;;5.70;5.20;;;17.80;93.80;;;;;;5134691;28;20490;-36
2021/06/16 03:43:54;;;;;;;6.27;5.70;;;17.80;94.00;;;;;;5116633;28;20559;-35
2021/06/16 03:46:21;;;;;;;5.67;5.03;;;17.80;94.00;;;;;;5117060;28;20824;-38
2021/06/16 03:48:48;;;;;;;6.10;5.57;;;17.80;94.10;;;;;;5116966;28;20416;-37
2021/06/16 03:51:14;;;;;;;6.33;5.73;;;17.80;94.20;;;;;;5117543;28;20543;-36
2021/06/16 03:53:40;;;;;;;5.10;4.70;;;17.90;94.10;;;;;;5117013;28;20416;-36
2021/06/16 03:56:06;;;;;;;5.87;5.37;;;17.90;94.20;;;;;;5118153;28;20659;-36
2021/06/16 03:58:33;;;;;;;6.03;5.53;;;17.90;94.30;;;;;;5135587;28;20446;-37
2021/06/16 04:00:59;;;;;;;7.10;6.00;;;17.90;94.10;;;;;;5135988;28;20228;-36
2021/06/16 04:03:26;;;;;;;5.97;5.43;;;18.00;94.20;;;;;;5136631;28;20456;-36
2021/06/16 04:05:52;;;;;;;7.80;7.10;;;18.00;94.20;;;;;;5117985;28;20748;-35
2021/06/16 04:08:18;;;;;;;7.37;6.30;;;18.00;94.20;;;;;;5117715;28;20397;-35
2021/06/16 04:10:48;;;;;;;8.83;6.00;;;18.00;94.30;;;;;;5116553;28;20448;-36
2021/06/16 04:13:14;;;;;;;6.57;6.00;;;18.00;94.40;;;;;;5135319;28;20416;-36
2021/06/16 04:15:40;;;;;;;5.73;5.23;;;18.00;94.40;;;;;;5135642;28;20412;-35
2021/06/16 04:18:07;;;;;;;6.57;5.97;;;18.10;94.50;;;;;;5135087;28;20231;-35
2021/06/16 04:20:33;;;;;;;5.77;5.27;;;18.20;94.40;;;;;;5136714;27;20431;-36
2021/06/16 04:22:59;;;;;;;6.17;5.67;;;18.20;94.40;;;;;;5150545;27;20456;-36
2021/06/16 04:25:27;;;;;;;6.00;5.40;;;18.30;94.40;;;;;;5140196;27;20500;-36
2021/06/16 04:27:53;;;;;;;6.30;5.73;;;18.40;94.20;;;;;;5139896;27;20466;-36
2021/06/16 04:30:21;;;;;;;7.67;6.93;;;18.50;94.00;;;;;;5140343;27;20412;-36
2021/06/16 04:32:48;;;;;;;6.87;6.27;;;18.60;94.20;;;;;;5140201;27;20416;-35
2021/06/16 04:35:14;;;;;;;8.53;5.07;;;18.70;93.70;;;;;;5139323;27;20515;-36
2021/06/16 04:37:40;;;;;;;6.57;5.77;;;18.70;93.60;;;;;;5140665;27;20425;-35
2021/06/16 04:40:07;;;;;;;6.53;5.93;;;18.80;93.50;;;;;;5140369;27;20438;-36
2021/06/16 04:42:33;;;;;;;7.43;6.00;;;18.90;93.40;;;;;;5121910;27;20468;-35
2021/06/16 04:44:59;;;;;;;6.70;6.10;;;19.00;93.60;;;;;;5137994;27;20405;-36
2021/06/16 04:47:25;;;;;;;6.80;5.80;;;19.10;93.60;;;;;;5137865;27;20420;-36
2021/06/16 04:49:50;;;;;;;6.03;5.53;;;19.20;93.40;;;;;;5137896;27;20262;-36
2021/06/16 04:52:16;;;;;;;5.50;5.00;;;19.30;93.70;;;;;;5137811;27;20179;-35
2021/06/16 04:54:42;;;;;;;6.87;6.20;;;19.30;93.30;;;;;;5139220;27;20171;-35
2021/06/16 04:57:08;;;;;;;7.43;6.00;;;19.40;93.10;;;;;;5139508;27;20175;-36
2021/06/16 04:59:35;;;;;;;6.57;5.30;;;19.50;92.90;;;;;;5120555;27;20687;-35
2021/06/16 05:02:02;;;;;;;7.07;6.47;;;19.70;92.60;;;;;;5138571;27;20432;-36
2021/06/16 05:04:28;;;;;;;15.23;6.47;;;19.80;92.50;;;;;;5139621;27;20424;-35
2021/06/16 05:06:57;;;;;;;7.40;6.20;;;19.90;92.30;;;;;;5139385;27;20412;-36
2021/06/16 05:09:23;;;;;;;6.33;5.73;;;20.00;92.00;;;;;;5138133;27;20416;-38
2021/06/16 05:11:49;;;;;;;6.60;6.10;;;20.00;91.80;;;;;;5138533;27;20702;-35
2021/06/16 05:14:15;;;;;;;7.00;6.33;;;20.10;91.70;;;;;;5139330;27;20417;-36
2021/06/16 05:16:41;;;;;;;6.97;6.27;;;20.20;91.60;;;;;;5137733;27;20244;-36
2021/06/16 05:19:19;;;;;;;7.23;6.53;;;20.30;91.70;;;;;;5138540;27;20405;-36
2021/06/16 05:21:45;;;;;;;7.67;6.27;;;20.30;91.60;;;;;;5137591;27;20418;-35
2021/06/16 05:24:11;;;;;;;6.63;6.00;;;20.40;91.30;;;;;;5138966;27;20479;-38
2021/06/16 05:26:38;;;;;;;6.67;6.07;;;20.50;90.90;;;;;;5139047;27;20420;-36
2021/06/16 05:29:05;;;;;;;6.93;5.67;;;20.50;90.80;;;;;;5138584;27;20744;-36
2021/06/16 05:31:32;;;;;;;7.00;6.30;;;20.60;90.80;;;;;;5137228;27;20425;-35
2021/06/16 05:33:58;;;;;;;5.87;5.37;;;20.70;90.80;;;;;;5138131;27;20421;-36
2021/06/16 05:36:25;;;;;;;7.43;6.83;;;20.70;91.10;;;;;;5136958;27;20432;-36
2021/06/16 05:38:51;;;;;;;6.50;6.00;;;20.60;91.10;;;;;;5135785;27;20501;-36
2021/06/16 05:41:17;;;;;;;7.20;6.50;;;20.80;91.00;;;;;;5134019;27;20507;-35
2021/06/16 05:43:43;;;;;;;6.07;5.47;;;20.80;90.40;;;;;;5117430;27;20830;-37
2021/06/16 05:46:10;;;;;;;6.80;6.27;;;20.90;90.30;;;;;;5134279;27;20420;-36
2021/06/16 05:48:36;;;;;;;6.60;5.90;;;21.00;90.00;;;;;;5134116;27;20507;-36
2021/06/16 05:51:01;;;;;;;6.60;5.93;;;21.20;89.70;;;;;;5137059;27;20523;-36
2021/06/16 05:53:27;;;;;;;7.10;6.40;;;21.30;88.80;;;;;;5135916;27;20239;-38
2021/06/16 05:55:53;;;;;;;5.53;5.03;;;21.50;88.50;;;;;;5135703;27;20543;-37
2021/06/16 05:58:19;;;;;;;6.17;5.57;;;21.60;87.60;;;;;;5135922;27;20193;-36
2021/06/16 06:00:44;;;;;;;5.63;5.17;;;21.70;87.00;;;;;;5136303;27;20231;-36
2021/06/16 06:03:10;;;;;;;5.40;5.00;;;21.90;85.60;;;;;;5137042;27;20256;-38
2021/06/16 06:05:36;;;;;;;6.27;5.77;;;22.00;84.50;;;;;;5136120;27;20179;-36
2021/06/16 06:08:02;;;;;;;8.03;5.03;;;22.10;82.80;;;;;;5139064;27;20431;-37
2021/06/16 06:10:28;;;;;;;4.93;4.43;;;22.20;82.50;;;;;;5138688;27;20222;-36
2021/06/16 06:12:55;;;;;;;6.50;4.80;;;22.40;82.00;;;;;;5135742;27;20837;-37
2021/06/16 06:15:22;;;;;;;4.73;4.20;;;22.60;81.30;;;;;;5134671;27;20400;-35
2021/06/16 06:17:48;;;;;;;5.03;4.63;;;22.80;79.70;;;;;;5135704;27;20750;-36
2021/06/16 06:20:14;;;;;;;4.93;4.20;;;22.90;79.00;;;;;;5136988;27;20408;-37
2021/06/16 06:22:40;;;;;;;7.73;5.60;;;23.10;78.90;;;;;;5140250;27;20460;-35
2021/06/16 06:25:06;;;;;;;5.40;4.50;;;23.30;77.80;;;;;;5147929;27;20461;-36
2021/06/16 06:27:32;;;;;;;5.30;4.80;;;23.40;77.30;;;;;;5138809;27;20444;-36
2021/06/16 06:29:58;;;;;;;6.00;5.40;;;23.60;77.20;;;;;;5137811;27;20836;-35
2021/06/16 06:32:24;;;;;;;6.60;4.60;;;23.70;75.90;;;;;;5136770;27;20312;-36
2021/06/16 06:34:49;;;;;;;7.17;5.27;;;23.40;76.20;;;;;;5117526;27;20186;-37
2021/06/16 06:37:15;;;;;;;5.10;4.70;;;23.60;75.30;;;;;;5135626;27;20190;-36
2021/06/16 06:39:42;;;;;;;5.27;4.83;;;23.80;75.40;;;;;;5136094;27;20637;-36
2021/06/16 06:42:07;;;;;;;6.20;4.67;;;23.90;74.80;;;;;;5135728;27;21312;-36
2021/06/16 06:44:33;;;;;;;4.73;4.33;;;24.10;74.80;;;;;;5133951;27;20472;-35
2021/06/16 06:46:59;;;;;;;4.90;4.50;;;24.30;74.60;;;;;;5136271;27;20564;-36
2021/06/16 06:49:25;;;;;;;6.73;4.13;;;24.60;73.50;;;;;;5136326;27;20175;-37
2021/06/16 06:51:51;;;;;;;7.47;5.00;;;24.80;73.00;;;;;;5133933;27;20511;-36
2021/06/16 06:54:17;;;;;;;5.93;5.33;;;24.90;72.30;;;;;;5135690;27;20183;-35
2021/06/16 06:56:43;;;;;;;4.90;4.40;;;24.80;71.20;;;;;;5136299;27;20439;-36
2021/06/16 06:59:08;;;;;;;5.50;5.00;;;24.80;71.60;;;;;;5136677;27;20425;-36
2021/06/16 07:01:34;;;;;;;4.83;4.37;;;24.90;71.70;;;;;;5135799;27;20424;-36
2021/06/16 07:04:01;;;;;;;4.33;3.90;;;24.90;71.10;;;;;;5136196;27;20595;-36
2021/06/16 07:06:29;;;;;;;4.90;4.47;;;25.10;71.60;;;;;;5136368;27;20488;-36
2021/06/16 07:08:55;;;;;;;5.20;4.80;;;25.30;71.10;;;;;;5136592;27;20424;-36
2021/06/16 07:11:20;;;;;;;5.87;5.27;;;25.40;68.90;;;;;;5118410;27;20431;-36
2021/06/16 07:13:46;;;;;;;6.20;5.60;;;25.50;69.60;;;;;;5136294;27;20174;-36
2021/06/16 07:16:12;;;;;;;5.30;4.57;;;25.90;69.60;;;;;;5136415;27;20428;-37
2021/06/16 07:18:38;;;;;;;8.63;4.57;;;25.90;69.50;;;;;;5134153;27;20532;-37
2021/06/16 07:21:04;;;;;;;5.80;5.20;;;26.20;68.20;;;;;;5133386;27;20477;-36
2021/06/16 07:23:30;;;;;;;4.97;4.57;;;26.40;66.00;;;;;;5134092;28;20475;-36
2021/06/16 07:25:56;;;;;;;5.00;4.37;;;26.30;65.90;;;;;;5133330;28;20432;-36
2021/06/16 07:28:22;;;;;;;5.17;4.73;;;26.10;67.50;;;;;;5132958;28;20170;-37
2021/06/16 07:30:48;;;;;;;8.43;5.00;;;26.40;65.20;;;;;;5134752;28;20540;-40
2021/06/16 07:33:14;;;;;;;5.27;4.87;;;26.60;65.20;;;;;;5134615;28;20425;-36
2021/06/16 07:35:40;;;;;;;5.47;4.53;;;26.60;65.70;;;;;;5136310;28;20424;-37
2021/06/16 07:38:06;;;;;;;5.90;4.33;;;26.80;62.30;;;;;;5116837;28;20235;-36
2021/06/16 07:40:32;;;;;;;4.83;3.90;;;26.90;60.60;;;;;;5136048;28;20456;-35
2021/06/16 07:42:58;;;;;;;4.67;4.27;;;27.00;59.10;;;;;;5136517;28;20780;-36
2021/06/16 07:45:24;;;;;;;5.10;4.70;;;27.10;58.60;;;;;;5135967;28;20419;-37
2021/06/16 07:47:50;;;;;;;5.57;4.17;;;27.30;58.60;;;;;;5136522;28;20167;-35
2021/06/16 07:50:17;;;;;;;5.50;5.00;;;27.50;58.20;;;;;;5121282;28;20482;-37
2021/06/16 07:52:43;;;;;;;5.17;4.20;;;27.70;58.60;;;;;;5136813;28;20242;-36
2021/06/16 07:55:09;;;;;;;5.70;5.20;;;28.00;58.10;;;;;;5118962;27;20728;-37
2021/06/16 07:57:35;;;;;;;4.53;4.13;;;28.30;56.80;;;;;;5139999;27;20869;-36
2021/06/16 08:00:01;;;;;;;5.33;4.93;;;28.40;56.20;;;;;;5140245;27;20515;-35
2021/06/16 08:02:29;;;;;;;5.27;4.87;;;28.20;55.20;;;;;;5138459;27;20431;-35
2021/06/16 08:04:56;;;;;;;6.40;4.77;;;28.20;56.30;;;;;;5137876;27;20411;-36
2021/06/16 08:07:21;;;;;;;6.03;4.60;;;28.20;55.70;;;;;;5138055;27;20558;-36
2021/06/16 08:09:47;;;;;;;5.53;4.97;;;28.50;56.00;;;;;;5139493;27;20560;-36
2021/06/16 08:12:14;;;;;;;6.30;4.57;;;28.80;54.80;;;;;;5138644;27;20611;-36
2021/06/16 08:14:40;;;;;;;5.03;4.40;;;28.90;54.30;;;;;;5137845;27;20548;-36
2021/06/16 08:17:07;;;;;;;5.27;4.80;;;29.00;54.80;;;;;;5115998;28;20469;-37
2021/06/16 08:19:33;;;;;;;5.00;4.37;;;29.00;54.20;;;;;;5117207;28;20555;-36
2021/06/16 08:22:00;;;;;;;6.63;4.93;;;29.00;54.20;;;;;;5116995;28;20427;-36
2021/06/16 08:24:26;;;;;;;5.10;4.60;;;29.10;54.00;;;;;;5117262;28;20468;-36
2021/06/16 08:26:52;;;;;;;5.00;4.20;;;29.20;52.90;;;;;;5118332;28;20396;-35
2021/06/16 08:29:19;;;;;;;5.27;4.80;;;29.20;53.10;;;;;;5118748;28;20416;-35
2021/06/16 08:31:45;;;;;;;5.37;4.97;;;29.20;52.70;;;;;;5117788;28;20885;-34
2021/06/16 08:34:11;;;;;;;5.40;4.90;;;29.00;53.10;;;;;;5118969;28;20417;-37
2021/06/16 08:36:38;;;;;;;4.50;4.20;;;29.20;53.60;;;;;;5120000;28;20494;-35
2021/06/16 08:39:05;;;;;;;6.27;4.37;;;29.40;51.10;;;;;;5118312;28;20456;-35
2021/06/16 08:41:31;;;;;;;7.67;3.93;;;29.50;51.20;;;;;;5118431;28;20468;-35
2021/06/16 08:43:58;;;;;;;5.03;4.63;;;29.70;50.60;;;;;;5118781;28;20584;-36
2021/06/16 08:46:25;;;;;;;5.10;4.60;;;29.70;49.50;;;;;;5116505;28;20465;-36
2021/06/16 08:48:50;;;;;;;4.57;4.17;;;29.60;50.50;;;;;;5116545;28;20516;-45
2021/06/16 08:51:16;;;;;;;5.27;4.80;;;29.40;49.60;;;;;;5117057;28;20505;-44
2021/06/16 08:53:44;;;;;;;6.43;4.20;;;29.20;50.40;;;;;;5116825;28;20444;-38
2021/06/16 08:56:11;;;;;;;5.70;4.23;;;29.30;50.80;;;;;;5116638;28;20885;-38
2021/06/16 08:58:38;;;;;;;5.23;4.83;;;29.50;51.10;;;;;;5114717;28;20764;-36
2021/06/16 09:01:06;;;;;;;5.90;5.40;;;29.50;50.40;;;;;;5113723;28;20713;-38
2021/06/16 09:03:32;;;;;;;6.20;4.30;;;29.70;50.80;;;;;;5115862;28;20558;-38
2021/06/16 09:06:09;;;;;;;4.80;4.40;;;29.90;51.00;;;;;;5114649;28;20861;-38
2021/06/16 09:08:53;;;;;;;4.53;4.17;;;29.80;50.40;;;;;;5115644;28;20417;-39
2021/06/16 09:11:20;;;;;;;4.80;4.20;;;30.00;49.20;;;;;;5116927;28;20421;-38
2021/06/16 09:13:46;;;;;;;4.40;4.07;;;29.80;49.30;;;;;;5115566;28;20577;-39
2021/06/16 09:16:29;;;;;;;5.60;4.23;;;30.00;49.80;;;;;;5116964;28;20418;-37
2021/06/16 09:18:57;;;;;;;7.40;4.90;;;30.00;48.90;;;;;;5094677;28;20430;-37
2021/06/16 09:21:37;;;;;;;5.73;4.40;;;30.20;49.30;;;;;;5095871;28;20816;-38
2021/06/16 09:24:04;;;;;;;5.50;5.00;;;30.30;49.50;;;;;;5094503;28;20897;-37
2021/06/16 09:26:35;;;;;;;4.77;4.30;;;30.50;49.30;;;;;;5094187;28;20479;-37
2021/06/16 09:29:01;;;;;;;5.33;4.67;;;30.50;50.20;;;;;;5095618;28;20399;-38
2021/06/16 09:31:34;;;;;;;4.80;4.40;;;30.70;48.50;;;;;;5095888;28;20448;-39
2021/06/16 09:34:05;;;;;;;4.97;4.47;;;31.00;46.90;;;;;;5097871;28;20754;-40
2021/06/16 09:36:31;;;;;;;5.23;4.73;;;31.30;46.40;;;;;;5097242;28;20533;-39
2021/06/16 09:39:07;;;;;;;4.43;3.93;;;31.50;47.10;;;;;;5097372;28;20859;-39
2021/06/16 09:41:33;;;;;;;6.10;4.50;;;31.60;47.00;;;;;;5095894;28;20411;-38
2021/06/16 09:43:59;;;;;;;4.83;4.33;;;31.70;45.80;;;;;;5095302;28;20465;-41
2021/06/16 09:46:25;;;;;;;5.07;4.33;;;31.50;46.70;;;;;;5096477;28;20418;-39
2021/06/16 09:48:51;;;;;;;6.33;4.50;;;31.80;47.20;;;;;;5096777;28;20434;-40
2021/06/16 09:51:19;;;;;;;4.57;4.17;;;32.20;46.00;;;;;;5097178;28;20614;-39
2021/06/16 09:53:55;;;;;;;4.23;3.83;;;32.40;44.50;;;;;;5095004;28;20411;-39
2021/06/16 09:56:22;;;;;;;4.80;4.40;;;32.20;45.00;;;;;;5093480;28;20491;-38
2021/06/16 09:58:47;;;;;;;4.90;4.43;;;31.90;44.90;;;;;;5093911;28;20462;-38
2021/06/16 10:01:13;;;;;;;4.53;4.23;;;31.70;45.00;;;;;;5094785;28;20729;-38
2021/06/16 10:03:41;;;;;;;4.50;4.10;;;31.50;45.40;;;;;;5092643;28;20621;-38
2021/06/16 10:06:15;;;;;;;5.53;5.03;;;31.50;45.60;;;;;;5095202;28;20185;-40
2021/06/16 10:08:49;;;;;;;4.73;4.33;;;32.30;45.30;;;;;;5096089;28;20437;-40
2021/06/16 10:11:18;;;;;;;5.17;4.77;;;32.70;44.50;;;;;;5094698;28;20380;-38
2021/06/16 10:13:45;;;;;;;5.57;4.40;;;32.70;43.70;;;;;;5095193;28;20657;-40
2021/06/16 10:16:11;;;;;;;4.50;4.20;;;32.90;43.50;;;;;;5095657;28;20847;-39
2021/06/16 10:18:47;;;;;;;4.63;4.17;;;33.30;43.40;;;;;;5131428;27;20784;-40
2021/06/16 10:21:17;;;;;;;5.10;4.57;;;33.70;43.80;;;;;;5119793;27;20504;-39
2021/06/16 10:23:43;;;;;;;4.70;4.30;;;34.00;42.80;;;;;;5135211;27;20557;-39
2021/06/16 10:26:24;;;;;;;5.50;5.00;;;34.50;41.90;;;;;;5134060;27;20474;-38
2021/06/16 10:28:57;;;;;;;5.20;4.80;;;34.00;41.30;;;;;;5132167;27;20441;-39
2021/06/16 10:31:23;;;;;;;4.60;4.20;;;33.90;42.30;;;;;;5132772;27;20379;-38
2021/06/16 10:33:57;;;;;;;5.20;4.43;;;34.30;42.00;;;;;;5115305;27;20388;-39
2021/06/16 10:36:23;;;;;;;5.57;5.07;;;34.40;41.70;;;;;;5133751;27;20669;-39
2021/06/16 10:38:59;;;;;;;7.60;4.93;;;34.30;40.80;;;;;;5115179;27;20781;-39
2021/06/16 10:41:51;;;;;;;4.93;4.47;;;34.30;40.70;;;;;;5135045;27;20410;-39
2021/06/16 10:44:21;;;;;;;6.47;4.13;;;33.60;40.40;;;;;;5135209;27;20845;-38
2021/06/16 10:47:13;;;;;;;4.40;3.93;;;34.00;40.30;;;;;;5136878;27;20434;-39
2021/06/16 10:49:42;;;;;;;4.57;4.23;;;34.70;38.80;;;;;;5131532;27;20428;-40
2021/06/16 10:52:10;;;;;;;8.97;4.80;;;35.40;41.80;;;;;;5137069;27;20429;-39
2021/06/16 10:54:37;;;;;;;4.60;4.20;;;36.20;38.60;;;;;;5136204;27;20419;-40
2021/06/16 10:57:12;;;;;;;5.23;4.37;;;36.20;37.20;;;;;;5118474;27;20425;-38
2021/06/16 11:00:08;;;;;;;4.60;4.20;;;35.70;36.60;;;;;;5136335;27;20484;-38
2021/06/16 11:02:41;;;;;;;5.20;4.53;;;35.90;37.50;;;;;;5136197;27;20407;-39
2021/06/16 11:05:31;;;;;;;5.27;4.40;;;36.30;37.70;;;;;;5135804;27;20418;-39
2021/06/16 11:07:59;;;;;;;4.93;4.53;;;34.50;38.20;;;;;;5135483;27;20395;-39
2021/06/16 11:10:52;;;;;;;4.77;4.37;;;35.30;37.60;;;;;;5136287;27;20482;-38
2021/06/16 11:13:37;;;;;;;5.20;4.70;;;35.40;37.20;;;;;;5137060;27;20395;-41
2021/06/16 11:16:41;;;;;;;8.13;4.60;;;35.90;36.10;;;;;;5117496;27;20410;-39
2021/06/16 11:19:23;;;;;;;5.00;4.53;;;35.60;36.20;;;;;;5136356;27;20448;-40
2021/06/16 11:21:51;;;;;;;4.90;4.53;;;35.70;36.60;;;;;;5135016;27;20459;-39
2021/06/16 11:24:17;;;;;;;4.97;4.57;;;35.70;36.30;;;;;;5132957;28;20943;-40
2021/06/16 11:26:44;;;;;;;4.80;4.50;;;36.00;37.70;;;;;;5132264;28;20487;-39
2021/06/16 11:29:10;;;;;;;5.13;4.63;;;35.40;36.20;;;;;;5132835;27;20176;-38
2021/06/16 11:32:11;;;;;;;5.57;5.17;;;35.50;37.60;;;;;;5137075;27;20424;-40
2021/06/16 11:34:51;;;;;;;4.73;4.33;;;35.90;36.20;;;;;;5137268;27;20206;-39
2021/06/16 11:37:54;;;;;;;5.53;5.03;;;35.10;35.80;;;;;;5120524;27;20684;-39
2021/06/16 11:40:20;;;;;;;4.90;4.50;;;34.90;38.00;;;;;;5137901;27;20382;-39
2021/06/16 11:42:46;;;;;;;5.10;4.70;;;35.40;36.70;;;;;;5139905;27;20479;-39
2021/06/16 11:45:12;;;;;;;5.23;4.80;;;35.40;36.60;;;;;;5119523;27;20420;-39
2021/06/16 11:47:39;;;;;;;5.20;4.80;;;35.60;36.40;;;;;;5137378;27;20572;-39
2021/06/16 11:50:09;;;;;;;4.90;4.50;;;35.90;36.70;;;;;;5137299;27;20163;-39
2021/06/16 11:52:35;;;;;;;5.03;4.53;;;36.30;37.00;;;;;;5119249;27;20760;-39
2021/06/16 11:55:01;;;;;;;6.50;5.07;;;36.40;36.70;;;;;;5120091;27;20488;-38
2021/06/16 11:57:28;;;;;;;5.53;5.03;;;36.40;35.70;;;;;;5121730;27;20791;-40
2021/06/16 11:59:54;;;;;;;4.70;4.30;;;36.10;35.70;;;;;;5138173;27;20266;-39
2021/06/16 12:02:25;;;;;;;4.90;4.50;;;36.40;36.50;;;;;;5139251;27;20421;-41
2021/06/16 12:05:10;;;;;;;5.07;4.67;;;37.00;38.40;;;;;;5139868;27;20408;-39
2021/06/16 12:07:40;;;;;;;5.30;4.90;;;37.50;35.70;;;;;;5104695;27;20427;-41
2021/06/16 12:10:13;;;;;;;5.10;4.70;;;37.80;35.00;;;;;;5139488;27;20404;-40
2021/06/16 12:12:56;;;;;;;5.30;4.90;;;38.30;34.60;;;;;;5138064;27;20412;-42
2021/06/16 12:15:30;;;;;;;4.70;4.40;;;38.00;33.60;;;;;;5140470;27;20866;-39
2021/06/16 12:17:56;;;;;;;5.47;5.07;;;38.50;34.20;;;;;;5139928;27;20846;-40
2021/06/16 12:20:25;;;;;;;5.50;5.00;;;38.70;33.50;;;;;;5139213;27;20469;-40
2021/06/16 12:22:51;;;;;;;5.10;4.70;;;38.20;33.30;;;;;;5140016;27;20206;-40
2021/06/16 12:25:41;;;;;;;5.37;4.97;;;37.50;33.80;;;;;;5121492;27;20420;-40
2021/06/16 12:28:07;;;;;;;5.23;4.83;;;37.10;33.80;;;;;;5139828;27;20539;-41
2021/06/16 12:30:36;;;;;;;4.30;4.00;;;36.90;34.30;;;;;;5120913;27;20477;-40
2021/06/16 12:33:32;;;;;;;5.30;4.90;;;37.00;35.80;;;;;;5102132;27;20470;-40
2021/06/16 12:36:08;;;;;;;5.27;4.83;;;37.50;34.50;;;;;;5138662;27;20407;-41
2021/06/16 12:38:45;;;;;;;5.00;4.60;;;37.50;33.50;;;;;;5136015;27;20767;-40
2021/06/16 12:41:32;;;;;;;5.23;4.83;;;37.20;35.10;;;;;;5134710;27;20419;-44
2021/06/16 12:44:33;;;;;;;5.30;4.90;;;36.90;36.10;;;;;;5137250;27;20592;-39
2021/06/16 12:47:00;;;;;;;5.50;5.00;;;37.30;34.70;;;;;;5137900;27;20407;-40
2021/06/16 12:49:29;;;;;;;4.97;4.57;;;37.20;34.00;;;;;;5103252;27;20387;-40
2021/06/16 12:52:02;;;;;;;4.90;4.60;;;37.00;35.20;;;;;;5137563;27;20432;-39
2021/06/16 12:54:43;;;;;;;4.90;4.60;;;37.30;36.70;;;;;;5116684;27;20403;-39
2021/06/16 12:57:09;;;;;;;6.13;5.27;;;37.80;35.80;;;;;;5134611;27;20683;-39